Time;durP1;ratioP1;P1;durP2;ratioP2;P2;SDS_P1;SDS_P2;PMS_P1;PMS_P2;Temp;Humidity;BMP_temperature;BMP_pressure;BME280_temperature;BME280_humidity;BME280_pressure;Samples;Min_cycle;Max_cycle;Signal;HPM_P1;HPM_P2
2023/03/13 00:24:55;;;;;;;16.90;10.30;;;2.00;90.00;;;;;;5700864;24;20234;-81
2023/03/13 00:55:22;;;;;;;13.63;8.20;;;2.40;88.00;;;;;;5639903;24;20184;-79
2023/03/13 01:25:41;;;;;;;11.27;7.73;;;2.40;90.20;;;;;;5676697;24;20434;-81
2023/03/13 02:31:24;;;;;;;16.30;9.67;;;2.50;89.70;;;;;;5374566;25;20805;-80
2023/03/13 03:02:06;;;;;;;14.73;9.40;;;2.70;91.20;;;;;;5528156;24;20695;-78
2023/03/13 03:32:34;;;;;;;13.37;8.97;;;2.60;92.30;;;;;;5503962;24;20235;-80
2023/03/13 03:57:48;;;;;;;13.47;8.90;;;2.90;91.50;;;;;;5508842;24;20223;-80
2023/03/13 04:18:04;;;;;;;18.03;9.97;;;2.90;92.10;;;;;;5535117;24;20718;-78
2023/03/13 04:48:29;;;;;;;15.07;10.10;;;2.80;99.90;;;;;;5585506;24;20181;-77
2023/03/13 05:23:30;;;;;;;16.00;11.63;;;2.90;99.90;;;;;;5901704;23;20484;-78
2023/03/13 07:40:34;;;;;;;19.57;13.20;;;4.50;99.90;;;;;;5507112;25;20196;-81
2023/03/13 08:06:05;;;;;;;19.03;13.20;;;5.40;99.90;;;;;;5426921;25;20509;-81
2023/03/13 08:35:55;;;;;;;16.80;12.17;;;6.20;99.90;;;;;;5535611;24;20521;-79
2023/03/13 08:56:47;;;;;;;15.27;11.57;;;6.70;99.90;;;;;;5688845;24;20843;-79
2023/03/13 09:16:47;;;;;;;14.20;10.20;;;8.30;97.10;;;;;;5555055;24;20774;-79
2023/03/13 09:37:26;;;;;;;16.40;8.50;;;9.50;93.60;;;;;;5570134;24;20618;-79
2023/03/13 10:07:47;;;;;;;11.07;6.27;;;10.70;90.70;;;;;;5664252;24;20218;-79
2023/03/13 10:47:57;;;;;;;11.47;6.33;;;11.40;90.50;;;;;;5651750;24;20234;-81
2023/03/13 11:13:39;;;;;;;9.30;5.33;;;11.20;90.60;;;;;;5779522;23;20173;-78
2023/03/13 11:59:32;;;;;;;11.00;6.00;;;12.40;85.20;;;;;;5852308;23;20332;-80
2023/03/13 12:19:46;;;;;;;10.00;5.37;;;12.70;83.30;;;;;;5674745;24;20575;-79
2023/03/13 12:59:45;;;;;;;8.23;5.07;;;11.90;89.60;;;;;;5754066;23;20642;-82
2023/03/13 13:25:40;;;;;;;12.90;5.83;;;10.90;99.90;;;;;;5937719;23;20613;-82
2023/03/13 13:55:57;;;;;;;12.63;5.80;;;10.20;99.90;;;;;;5747764;24;20216;-85
2023/03/13 14:21:12;;;;;;;16.07;6.13;;;10.00;99.90;;;;;;5649440;24;20530;-84
2023/03/13 14:46:44;;;;;;;15.13;6.40;;;10.00;99.90;;;;;;5637800;24;20198;-83
2023/03/13 15:22:24;;;;;;;13.70;5.27;;;9.90;99.90;;;;;;5783020;24;20325;-80
2023/03/13 16:02:18;;;;;;;11.70;4.97;;;9.70;99.90;;;;;;5830199;23;20630;-82
2023/03/13 16:28:06;;;;;;;9.27;5.53;;;9.70;99.90;;;;;;5793144;23;20261;-82
2023/03/13 16:58:48;;;;;;;11.60;5.47;;;9.80;99.90;;;;;;5845495;23;20213;-82
2023/03/13 17:28:48;;;;;;;8.00;5.40;;;9.90;99.90;;;;;;5643834;24;20324;-79
2023/03/13 17:49:20;;;;;;;13.93;6.10;;;10.30;99.90;;;;;;5650182;24;20216;-81
2023/03/13 18:39:54;;;;;;;8.77;4.97;;;10.50;96.40;;;;;;5594841;24;20585;-82
2023/03/13 18:55:31;;;;;;;9.03;5.60;;;10.60;94.20;;;;;;5704862;24;20216;-82
2023/03/13 18:59:50;;;;;;;8.07;5.20;;;10.60;93.70;;;;;;5650218;24;20383;-83
2023/03/13 19:30:54;;;;;;;6.50;5.27;;;10.60;93.20;;;;;;5935085;23;20333;-83
2023/03/13 20:01:05;;;;;;;7.43;5.83;;;10.60;92.10;;;;;;5884126;23;20564;-83
2023/03/13 20:42:01;;;;;;;9.70;6.50;;;10.60;92.20;;;;;;6015147;23;20209;-83
2023/03/13 20:46:20;;;;;;;9.43;6.27;;;10.60;92.40;;;;;;5806327;23;20925;-80
2023/03/13 21:12:25;;;;;;;9.00;6.13;;;10.50;91.90;;;;;;5905635;23;20181;-81
2023/03/13 21:47:50;;;;;;;9.17;6.03;;;10.60;91.10;;;;;;5781015;23;20344;-82
2023/03/13 22:18:02;;;;;;;10.80;7.00;;;10.50;90.90;;;;;;5823275;23;20163;-81
2023/03/13 22:58:51;;;;;;;10.00;6.47;;;10.80;89.00;;;;;;5910070;24;20350;-83
2023/03/13 23:29:15;;;;;;;8.17;6.73;;;10.40;88.70;;;;;;5712607;24;20398;-82
2023/03/13 23:49:34;;;;;;;10.27;6.50;;;10.00;90.00;;;;;;5606604;24;20283;-80
